createdAt,value
2022-09-07T00:04:06.757Z,100.00
2022-09-07T00:06:55.248Z,100.00
2022-09-07T00:12:23.077Z,100.00
2022-09-07T00:15:12.726Z,100.00
2022-09-07T00:18:01.355Z,100.00
2022-09-07T00:23:50.449Z,100.00
2022-09-07T00:26:40.214Z,100.00
2022-09-07T00:29:29.717Z,100.00
2022-09-07T00:35:02.394Z,100.00
2022-09-07T00:43:20.679Z,100.00
2022-09-07T00:48:59.575Z,100.00
2022-09-07T00:51:50.996Z,100.00
2022-09-07T01:00:15.170Z,100.00
2022-09-07T01:05:57.728Z,100.00
2022-09-07T01:08:47.371Z,100.00
2022-09-07T01:11:36.233Z,100.00
2022-09-07T01:20:32.044Z,100.00
2022-09-07T01:23:45.209Z,100.00
2022-09-07T01:29:52.510Z,100.00
2022-09-07T01:32:49.852Z,100.00
2022-09-07T01:38:31.467Z,100.00
2022-09-07T01:44:23.626Z,100.00
2022-09-07T01:50:00.751Z,100.00
2022-09-07T01:55:42.364Z,100.00
2022-09-07T02:01:23.007Z,100.00
2022-09-07T02:07:00.576Z,100.00
2022-09-07T02:12:36.341Z,100.00
2022-09-07T02:18:15.916Z,100.00
2022-09-07T02:21:05.308Z,100.00
2022-09-07T02:26:36.572Z,100.00
2022-09-07T02:32:11.971Z,100.00
2022-09-07T02:34:59.992Z,100.00
2022-09-07T02:37:50.392Z,100.00
2022-09-07T02:43:20.358Z,100.00
2022-09-07T02:48:59.597Z,100.00
2022-09-07T02:57:22.824Z,100.00
2022-09-07T03:03:00.498Z,100.00
2022-09-07T03:08:31.114Z,100.00
2022-09-07T03:14:22.125Z,100.00
2022-09-07T03:19:52.827Z,100.00
2022-09-07T03:25:34.141Z,100.00
2022-09-07T03:31:11.150Z,100.00
2022-09-07T03:36:46.233Z,100.00
2022-09-07T03:42:18.940Z,100.00
2022-09-07T03:47:56.746Z,100.00
2022-09-07T03:53:31.450Z,100.00
2022-09-07T03:59:11.245Z,100.00
2022-09-07T04:04:50.119Z,100.00
2022-09-07T04:07:40.400Z,100.00
2022-09-07T04:13:15.476Z,100.00
2022-09-07T04:16:11.097Z,100.00
2022-09-07T04:18:59.899Z,100.00
2022-09-07T04:24:35.277Z,100.00
2022-09-07T04:30:16.007Z,100.00
2022-09-07T04:33:05.488Z,100.00
2022-09-07T04:38:36.208Z,100.00
2022-09-07T04:44:16.818Z,100.00
2022-09-07T04:50:00.959Z,100.00
2022-09-07T04:55:36.850Z,100.00
2022-09-07T04:58:33.642Z,100.00
2022-09-07T05:04:06.157Z,100.00
2022-09-07T05:06:55.596Z,100.00
2022-09-07T05:12:31.327Z,100.00
2022-09-07T05:18:07.592Z,100.00
2022-09-07T05:20:55.872Z,100.00
2022-09-07T05:23:44.440Z,100.00
2022-09-07T05:26:37.064Z,100.00
2022-09-07T05:32:13.396Z,100.00
2022-09-07T05:40:38.479Z,100.00
2022-09-07T05:46:13.698Z,100.00
2022-09-07T05:51:51.616Z,100.00
2022-09-07T05:54:40.245Z,100.00
2022-09-07T06:00:17.602Z,100.00
2022-09-07T06:03:06.307Z,100.00
2022-09-07T06:06:02.981Z,100.00
2022-09-07T06:08:53.190Z,100.00
2022-09-07T06:11:41.872Z,100.00
2022-09-07T06:14:30.569Z,100.00
2022-09-07T06:17:19.720Z,100.00
2022-09-07T06:20:10.195Z,100.00
2022-09-07T06:22:59.931Z,100.00
2022-09-07T06:25:51.084Z,100.00
2022-09-07T06:31:27.415Z,100.00
2022-09-07T06:37:03.191Z,100.00
2022-09-07T06:42:40.312Z,100.00
2022-09-07T06:51:01.854Z,100.00
2022-09-07T06:56:30.002Z,100.00
2022-09-07T06:59:18.982Z,100.00
2022-09-07T07:02:08.027Z,97.08
2022-09-07T07:07:44.641Z,90.44
2022-09-07T07:16:09.793Z,85.61
2022-09-07T07:24:46.981Z,84.44
2022-09-07T07:30:15.349Z,85.88
2022-09-07T07:35:48.881Z,82.74
2022-09-07T07:46:55.489Z,81.15
2022-09-07T07:52:50.732Z,81.26
2022-09-07T08:03:44.491Z,80.27
2022-09-07T08:09:19.490Z,78.23
2022-09-07T08:14:49.914Z,77.41
2022-09-07T08:20:22.956Z,75.82
2022-09-07T08:25:54.034Z,73.06
2022-09-07T08:28:45.375Z,73.99
2022-09-07T08:34:23.408Z,70.82
2022-09-07T08:37:12.236Z,69.68
2022-09-07T08:45:39.223Z,67.65
2022-09-07T08:48:32.778Z,69.36
2022-09-07T08:51:24.554Z,70.03
2022-09-07T09:02:44.101Z,68.63
2022-09-07T09:08:25.104Z,66.57
2022-09-07T09:16:53.085Z,67.95
2022-09-07T09:22:34.052Z,72.18
2022-09-07T09:28:01.897Z,68.27
2022-09-07T09:30:50.719Z,69.07
2022-09-07T09:33:39.986Z,70.85
2022-09-07T09:42:20.314Z,68.26
2022-09-07T09:45:14.260Z,64.90
2022-09-07T09:56:45.108Z,64.66
2022-09-07T10:05:29.781Z,67.50
2022-09-07T10:11:07.702Z,66.59
2022-09-07T10:16:44.825Z,66.48
2022-09-07T10:19:37.634Z,66.20
2022-09-07T10:22:35.711Z,65.82
2022-09-07T10:28:22.114Z,65.84
2022-09-07T10:39:51.359Z,59.45
2022-09-07T10:45:31.232Z,59.79
2022-09-07T10:51:16.776Z,53.99
2022-09-07T11:05:38.510Z,49.79
2022-09-07T11:14:12.402Z,48.87
2022-09-07T11:19:36.184Z,48.98
2022-09-07T11:22:44.601Z,50.30
2022-09-07T11:25:36.506Z,49.79
2022-09-07T11:31:11.851Z,48.82
2022-09-07T11:36:51.922Z,51.85
2022-09-07T11:48:09.035Z,52.69
2022-09-07T11:53:50.215Z,54.55
2022-09-07T11:59:39.888Z,53.17
2022-09-07T12:06:36.878Z,48.14
2022-09-07T12:12:30.822Z,50.42
2022-09-07T12:15:26.736Z,50.92
2022-09-07T12:21:07.965Z,51.01
2022-09-07T12:23:58.756Z,51.86
2022-09-07T12:29:45.091Z,50.76
2022-09-07T12:35:46.552Z,51.97
2022-09-07T12:39:02.536Z,50.91
2022-09-07T12:44:35.087Z,49.33
2022-09-07T12:47:37.789Z,47.37
2022-09-07T12:56:32.136Z,49.72
2022-09-07T13:03:07.955Z,49.51
2022-09-07T13:09:10.957Z,48.00
2022-09-07T13:14:39.089Z,45.99
2022-09-07T13:20:39.648Z,45.79
2022-09-07T13:26:17.031Z,45.20
2022-09-07T13:29:06.808Z,43.65
2022-09-07T13:34:53.357Z,42.54
2022-09-07T13:37:52.450Z,41.49
2022-09-07T13:43:27.558Z,45.44
2022-09-07T13:49:12.380Z,43.35
2022-09-07T13:55:00.255Z,38.62
2022-09-07T14:00:38.940Z,44.34
2022-09-07T14:03:29.548Z,43.58
2022-09-07T14:06:34.428Z,44.56
2022-09-07T14:12:16.321Z,44.72
2022-09-07T14:17:52.515Z,37.84
2022-09-07T14:23:31.126Z,41.40
2022-09-07T14:29:06.494Z,42.91
2022-09-07T14:31:54.481Z,40.40
2022-09-07T14:37:30.978Z,38.81
2022-09-07T14:40:22.408Z,39.00
2022-09-07T14:43:30.514Z,39.50
2022-09-07T14:51:52.483Z,37.37
2022-09-07T14:54:42.644Z,37.56
2022-09-07T15:03:28.437Z,37.25
2022-09-07T15:09:30.593Z,39.63
2022-09-07T15:12:29.910Z,39.91
2022-09-07T15:18:29.497Z,40.81
2022-09-07T15:24:01.180Z,41.39
2022-09-07T15:27:05.942Z,41.49
2022-09-07T15:32:28.882Z,42.65
2022-09-07T15:35:18.881Z,42.80
2022-09-07T15:41:21.749Z,44.61
2022-09-07T15:43:48.585Z,44.75
2022-09-07T15:46:37.364Z,45.46
2022-09-07T15:52:10.042Z,46.31
2022-09-07T15:57:52.784Z,46.77
2022-09-07T16:06:14.625Z,46.22
2022-09-07T16:11:44.582Z,44.86
2022-09-07T16:20:06.912Z,46.57
2022-09-07T16:25:57.576Z,47.90
2022-09-07T16:31:34.680Z,50.02
2022-09-07T16:34:23.437Z,50.17
2022-09-07T16:39:59.086Z,50.73
2022-09-07T16:51:19.527Z,49.80
2022-09-07T16:56:53.715Z,47.73
2022-09-07T16:59:41.823Z,48.20
2022-09-07T17:05:19.166Z,49.04
2022-09-07T17:11:01.584Z,54.18
2022-09-07T17:16:32.186Z,59.71
2022-09-07T17:22:12.299Z,62.60
2022-09-07T17:25:00.481Z,65.93
2022-09-07T17:27:49.272Z,66.53
2022-09-07T17:33:16.946Z,68.21
2022-09-07T17:41:36.378Z,80.91
2022-09-07T17:47:15.172Z,87.13
2022-09-07T17:52:52.979Z,83.38
2022-09-07T17:58:17.753Z,88.92
2022-09-07T18:01:11.544Z,88.35
2022-09-07T18:06:41.609Z,84.06
2022-09-07T18:09:31.504Z,81.22
2022-09-07T18:15:10.965Z,85.50
2022-09-07T18:17:59.567Z,85.74
2022-09-07T18:20:48.090Z,85.45
2022-09-07T18:26:23.599Z,86.77
2022-09-07T18:32:02.334Z,84.34
2022-09-07T18:34:51.631Z,87.00
2022-09-07T18:40:24.933Z,85.72
2022-09-07T18:43:13.133Z,87.32
2022-09-07T18:48:56.008Z,89.44
2022-09-07T18:54:26.151Z,95.05
2022-09-07T19:00:05.032Z,97.08
2022-09-07T19:05:52.544Z,91.38
2022-09-07T19:11:25.087Z,98.32
2022-09-07T19:19:37.587Z,100.00
2022-09-07T19:25:14.833Z,100.00
2022-09-07T19:30:43.199Z,100.00
2022-09-07T19:36:17.404Z,100.00
2022-09-07T19:41:51.349Z,100.00
2022-09-07T19:44:40.411Z,100.00
2022-09-07T19:47:28.297Z,100.00
2022-09-07T19:52:58.714Z,100.00
2022-09-07T19:55:47.285Z,100.00
2022-09-07T19:58:36.612Z,100.00
2022-09-07T20:01:25.981Z,100.00
2022-09-07T20:07:06.523Z,100.00
2022-09-07T20:12:44.511Z,99.77
2022-09-07T20:18:14.663Z,99.68
2022-09-07T20:21:06.320Z,99.33
2022-09-07T20:26:45.208Z,95.28
2022-09-07T20:32:27.612Z,95.96
2022-09-07T20:37:57.176Z,98.43
2022-09-07T20:43:33.203Z,96.09
2022-09-07T20:49:09.652Z,98.19
2022-09-07T20:54:38.726Z,100.00
2022-09-07T21:00:09.140Z,97.11
2022-09-07T21:02:58.305Z,97.32
2022-09-07T21:05:46.855Z,98.94
2022-09-07T21:11:30.185Z,100.00
2022-09-07T21:17:10.207Z,98.92
2022-09-07T21:19:59.784Z,99.81
2022-09-07T21:25:32.705Z,99.41
2022-09-07T21:31:09.050Z,94.96
2022-09-07T21:39:30.947Z,95.40
2022-09-07T21:45:07.681Z,100.00
2022-09-07T21:47:56.313Z,100.00
2022-09-07T21:53:32.074Z,100.00
2022-09-07T21:59:07.319Z,100.00
2022-09-07T22:01:55.594Z,100.00
2022-09-07T22:07:31.937Z,100.00
2022-09-07T22:13:10.621Z,100.00
2022-09-07T22:15:59.075Z,100.00
2022-09-07T22:18:52.479Z,100.00
2022-09-07T22:21:41.077Z,100.00
2022-09-07T22:24:32.577Z,100.00
2022-09-07T22:27:22.122Z,100.00
2022-09-07T22:32:52.604Z,100.00
2022-09-07T22:38:25.871Z,100.00
2022-09-07T22:41:16.440Z,100.00
2022-09-07T22:44:05.195Z,100.00
2022-09-07T22:46:53.850Z,100.00
2022-09-07T22:49:42.351Z,100.00
2022-09-07T22:55:15.184Z,100.00
2022-09-07T22:58:03.490Z,100.00
2022-09-07T23:00:52.763Z,100.00
2022-09-07T23:06:33.260Z,100.00
2022-09-07T23:12:09.849Z,100.00
2022-09-07T23:17:45.423Z,100.00
2022-09-07T23:23:22.874Z,100.00
2022-09-07T23:28:58.702Z,100.00
2022-09-07T23:31:47.955Z,100.00
2022-09-07T23:37:20.826Z,100.00
2022-09-07T23:40:11.082Z,100.00
2022-09-07T23:45:40.906Z,100.00
2022-09-07T23:51:14.672Z,100.00
2022-09-07T23:56:49.336Z,100.00
